Curuca, Brazil
Current Conditions -  °F | °C
As of 2:00 PM on Wednesday 26 Nov 2014 (Local Time) from SBBE Reporting Station
Broken Clouds Broken Clouds  
Wind Chill: 90°   Ceiling: 4000
Heat Index: 96°   Visibility: 6mi
Dew Point: 72°   Wind: 5mph
Humidity: 55%   Direction: 120°ESE
Pressure: 29.77"   Gusts: NA
Location:  0.73°S, 47.85°W
Report Text: SBBE 261700Z 12004KT 9999 BKN040 32/22 Q1008
Loading
Personal Weather Stations






























Interactive Weather Map New forecast layout! Learn more

10-Day Weather Forecast

Advertisements
Track Severe Weather on mobile